createdAt,value
2019-05-02T00:04:42.023Z,22.09
2019-05-02T00:09:51.145Z,26.83
2019-05-02T00:15:01.988Z,24.71
2019-05-02T00:20:09.178Z,22.48
2019-05-02T00:25:18.382Z,24.00
2019-05-02T00:30:29.941Z,25.15
2019-05-02T00:35:40.798Z,22.61
2019-05-02T00:40:37.748Z,29.09
2019-05-02T00:45:55.094Z,24.42
2019-05-02T00:50:55.674Z,29.81
2019-05-02T00:56:05.087Z,33.18
2019-05-02T01:01:07.832Z,35.18
2019-05-02T01:06:13.905Z,30.96
2019-05-02T01:11:09.191Z,25.40
2019-05-02T01:16:21.426Z,39.48
2019-05-02T01:21:20.520Z,29.98
2019-05-02T01:26:30.611Z,26.21
2019-05-02T01:31:38.336Z,28.50
2019-05-02T01:36:47.473Z,34.48
2019-05-02T01:41:59.952Z,45.90
2019-05-02T01:47:05.259Z,39.95
2019-05-02T01:52:14.361Z,42.28
2019-05-02T01:57:23.676Z,38.79
2019-05-02T02:02:33.031Z,51.90
2019-05-02T02:07:41.445Z,50.19
2019-05-02T02:13:03.368Z,59.97
2019-05-02T02:17:59.420Z,51.10
2019-05-02T02:23:10.172Z,58.56
2019-05-02T02:28:17.249Z,62.56
2019-05-02T02:33:26.374Z,80.17
2019-05-02T02:38:35.606Z,79.34
2019-05-02T02:43:43.192Z,70.32
2019-05-02T02:48:52.334Z,81.35
2019-05-02T02:54:03.987Z,77.03
2019-05-02T02:59:10.114Z,79.70
2019-05-02T03:04:19.190Z,82.27
2019-05-02T03:09:29.094Z,80.72
2019-05-02T03:14:41.134Z,70.89
2019-05-02T03:19:45.643Z,61.68
2019-05-02T03:24:54.755Z,76.17
2019-05-02T03:30:03.932Z,74.65
2019-05-02T03:35:18.392Z,78.81
2019-05-02T03:40:21.775Z,90.80
2019-05-02T03:45:32.275Z,83.04
2019-05-02T03:50:39.565Z,87.43
2019-05-02T03:55:48.729Z,86.81
2019-05-02T04:01:01.553Z,89.03
2019-05-02T04:06:07.293Z,94.72
2019-05-02T04:11:16.473Z,93.80
2019-05-02T04:16:25.570Z,94.10
2019-05-02T04:21:34.781Z,93.64
2019-05-02T04:26:53.659Z,93.43
2019-05-02T04:31:52.692Z,93.22
2019-05-02T04:37:03.909Z,93.96
2019-05-02T04:42:16.192Z,85.15
2019-05-02T04:47:21.688Z,81.49
2019-05-02T04:52:28.781Z,80.22
2019-05-02T04:57:36.833Z,81.64
2019-05-02T05:02:44.281Z,75.83
2019-05-02T05:07:53.457Z,80.05
2019-05-02T05:13:02.698Z,77.53
2019-05-02T05:18:14.456Z,71.18
2019-05-02T05:23:21.630Z,72.71
2019-05-02T05:28:29.364Z,75.32
2019-05-02T05:33:39.687Z,76.42
2019-05-02T05:38:40.642Z,76.69
2019-05-02T05:43:53.410Z,75.74
2019-05-02T05:48:48.363Z,77.11
2019-05-02T05:54:02.778Z,77.09
2019-05-02T05:59:07.812Z,74.57
2019-05-02T06:04:19.381Z,71.26
2019-05-02T06:09:26.229Z,67.90
2019-05-02T06:14:34.152Z,64.70
2019-05-02T06:19:42.599Z,63.55
2019-05-02T06:24:46.239Z,62.80
2019-05-02T06:29:56.174Z,55.82
2019-05-02T06:34:52.201Z,56.00
2019-05-02T06:40:03.172Z,54.12
2019-05-02T06:45:11.582Z,48.96
2019-05-02T06:50:10.778Z,55.48
2019-05-02T06:55:20.224Z,62.44
2019-05-02T07:05:38.232Z,52.92
2019-05-02T07:10:47.372Z,55.00
2019-05-02T07:15:57.451Z,55.34
2019-05-02T07:20:56.681Z,59.70
2019-05-02T07:26:07.058Z,67.45
2019-05-02T07:31:06.495Z,55.51
2019-05-02T07:36:14.946Z,64.84
2019-05-02T07:41:28.515Z,62.26
2019-05-02T07:46:33.397Z,53.13
2019-05-02T07:51:42.569Z,82.21
2019-05-02T07:56:54.637Z,81.28
2019-05-02T08:01:53.564Z,85.69
2019-05-02T08:07:03.972Z,72.67
2019-05-02T08:12:05.192Z,87.45
2019-05-02T08:17:16.022Z,84.61
2019-05-02T08:22:13.160Z,95.56
2019-05-02T08:27:14.830Z,84.56
2019-05-02T08:32:25.913Z,85.09
2019-05-02T08:37:25.968Z,70.87
2019-05-02T08:42:27.683Z,97.52
2019-05-02T08:47:34.044Z,84.35
2019-05-02T08:52:47.736Z,93.22
2019-05-02T08:57:53.105Z,92.32
2019-05-02T09:03:04.439Z,80.07
2019-05-02T09:08:16.680Z,76.62
2019-05-02T09:13:17.913Z,56.60
2019-05-02T09:18:25.393Z,54.52
2019-05-02T09:23:33.220Z,53.05
2019-05-02T09:28:39.797Z,56.45
2019-05-02T09:33:49.287Z,62.80
2019-05-02T09:38:58.928Z,58.47
2019-05-02T09:44:08.970Z,51.16
2019-05-02T09:49:16.561Z,58.59
2019-05-02T09:54:27.629Z,58.91
2019-05-02T09:59:30.116Z,51.88
2019-05-02T10:04:35.642Z,54.73
2019-05-02T10:09:47.068Z,59.34
2019-05-02T10:14:46.313Z,53.33
2019-05-02T10:19:57.270Z,59.98
2019-05-02T10:25:03.854Z,50.31
2019-05-02T10:30:15.617Z,54.53
2019-05-02T10:35:22.913Z,50.18
2019-05-02T10:40:32.167Z,53.21
2019-05-02T10:45:39.244Z,49.17
2019-05-02T10:50:48.478Z,36.95
2019-05-02T10:55:57.611Z,41.51
2019-05-02T11:01:05.712Z,30.65
2019-05-02T11:06:14.846Z,31.87
2019-05-02T11:11:24.044Z,25.36
2019-05-02T11:16:33.169Z,32.83
2019-05-02T11:21:53.495Z,27.13
2019-05-02T11:26:52.964Z,43.07
2019-05-02T11:31:52.224Z,28.62
2019-05-02T11:37:01.730Z,37.41
2019-05-02T11:42:10.093Z,23.73
2019-05-02T11:47:25.080Z,31.22
2019-05-02T11:52:32.968Z,40.73
2019-05-02T11:57:35.554Z,44.90
2019-05-02T12:02:49.190Z,45.03
2019-05-02T12:07:53.716Z,57.03
2019-05-02T12:13:06.607Z,45.86
2019-05-02T12:18:12.822Z,43.81
2019-05-02T12:23:22.671Z,41.91
2019-05-02T12:28:32.377Z,41.32
2019-05-02T12:33:39.783Z,35.73
2019-05-02T12:38:49.005Z,41.13
2019-05-02T12:43:58.217Z,33.94
2019-05-02T12:49:07.546Z,32.29
2019-05-02T12:54:18.566Z,30.98
2019-05-02T12:59:17.664Z,30.05
2019-05-02T13:04:27.148Z,29.23
2019-05-02T13:09:37.398Z,25.98
2019-05-02T13:14:36.606Z,30.95
2019-05-02T13:19:55.712Z,25.39
2019-05-02T13:24:56.305Z,31.38
2019-05-02T13:30:03.799Z,30.96
2019-05-02T13:35:13.062Z,30.23
2019-05-02T13:40:22.616Z,29.34
2019-05-02T13:45:29.601Z,29.39
2019-05-02T13:50:37.298Z,24.23
2019-05-02T13:55:46.602Z,22.09
2019-05-02T14:00:55.769Z,19.36
2019-05-02T14:06:05.087Z,17.86
2019-05-02T14:11:14.386Z,21.54
2019-05-02T14:16:25.056Z,15.85
2019-05-02T14:21:24.266Z,16.49
2019-05-02T14:26:33.539Z,16.44
2019-05-02T14:31:42.882Z,14.86
2019-05-02T14:36:57.462Z,14.82
2019-05-02T14:42:02.102Z,14.96
2019-05-02T14:47:17.874Z,9.22
2019-05-02T14:52:09.996Z,10.91
2019-05-02T14:57:25.451Z,13.22
2019-05-02T15:02:30.810Z,11.01
2019-05-02T15:07:38.491Z,9.45
2019-05-02T15:12:51.613Z,9.72
2019-05-02T15:17:46.543Z,8.00
2019-05-02T15:22:57.625Z,8.46
2019-05-02T15:27:59.944Z,8.81
2019-05-02T15:33:07.908Z,12.77
2019-05-02T15:38:07.114Z,7.89
2019-05-02T15:43:16.944Z,7.09
2019-05-02T15:48:27.757Z,6.53
2019-05-02T15:53:39.003Z,6.79
2019-05-02T15:58:36.943Z,6.43
2019-05-02T16:03:46.498Z,6.53
2019-05-02T16:08:56.385Z,6.96
2019-05-02T16:13:56.253Z,6.55
2019-05-02T16:19:04.562Z,4.92
2019-05-02T16:24:16.350Z,5.73
2019-05-02T16:29:23.515Z,6.25
2019-05-02T16:34:27.291Z,5.82
2019-05-02T16:39:25.804Z,6.26
2019-05-02T16:44:35.129Z,7.36
2019-05-02T16:49:34.747Z,5.06
2019-05-02T16:54:46.396Z,4.66
2019-05-02T16:59:44.255Z,3.86
2019-05-02T17:04:54.697Z,4.00
2019-05-02T17:10:02.828Z,2.71
2019-05-02T17:15:13.765Z,3.54
2019-05-02T17:20:21.833Z,3.54
2019-05-02T17:25:32.200Z,5.32
2019-05-02T17:30:33.651Z,5.80
2019-05-02T17:35:49.556Z,5.49
2019-05-02T17:40:42.174Z,4.03
2019-05-02T17:45:49.283Z,6.16
2019-05-02T17:50:59.382Z,7.52
2019-05-02T17:56:11.932Z,9.27
2019-05-02T18:01:18.461Z,7.04
2019-05-02T18:06:17.683Z,5.76
2019-05-02T18:11:29.605Z,3.24
2019-05-02T18:16:35.615Z,6.58
2019-05-02T18:21:44.753Z,5.56
2019-05-02T18:26:54.851Z,5.44
2019-05-02T18:31:53.962Z,6.03
2019-05-02T18:37:06.150Z,4.83
2019-05-02T18:42:12.016Z,4.72
2019-05-02T18:47:24.778Z,6.19
2019-05-02T18:52:23.772Z,4.73
2019-05-02T18:57:31.008Z,5.22
2019-05-02T19:02:42.644Z,7.00
2019-05-02T19:07:42.865Z,4.49
2019-05-02T19:12:50.683Z,5.08
2019-05-02T19:18:00.014Z,4.86
2019-05-02T19:23:09.189Z,6.13
2019-05-02T19:28:18.634Z,6.12
2019-05-02T19:33:27.776Z,6.44
2019-05-02T19:38:37.068Z,8.27
2019-05-02T19:43:49.924Z,6.82
2019-05-02T19:48:54.920Z,9.68
2019-05-02T19:54:06.910Z,10.41
2019-05-02T19:59:16.773Z,8.34
2019-05-02T20:04:22.170Z,6.82
2019-05-02T20:09:31.866Z,5.83
2019-05-02T20:14:43.701Z,4.59
2019-05-02T20:19:47.709Z,5.76
2019-05-02T20:25:00.293Z,8.34
2019-05-02T20:30:05.628Z,9.85
2019-05-02T20:35:14.789Z,5.74
2019-05-02T20:40:24.003Z,8.35
2019-05-02T20:45:33.139Z,8.98
2019-05-02T20:50:42.487Z,11.28
2019-05-02T20:55:52.391Z,8.71
2019-05-02T21:01:07.716Z,8.53
2019-05-02T21:06:09.331Z,7.35
2019-05-02T21:11:18.665Z,9.07
2019-05-02T21:16:28.263Z,9.02
2019-05-02T21:21:40.043Z,10.08
2019-05-02T21:26:44.802Z,6.97
2019-05-02T21:31:54.100Z,6.82
2019-05-02T21:37:03.252Z,8.82
2019-05-02T21:42:12.532Z,8.43
2019-05-02T21:47:22.558Z,10.37
2019-05-02T21:52:31.826Z,7.61
2019-05-02T21:57:39.449Z,7.62
2019-05-02T22:02:48.875Z,10.42
2019-05-02T22:07:58.045Z,7.28
2019-05-02T22:13:07.372Z,8.99
2019-05-02T22:18:16.502Z,9.13
2019-05-02T22:23:25.686Z,8.76
2019-05-02T22:28:34.848Z,10.13
2019-05-02T22:33:44.658Z,6.25
2019-05-02T22:38:52.875Z,9.13
2019-05-02T22:44:02.128Z,8.92
2019-05-02T22:49:11.914Z,8.87
2019-05-02T22:54:26.958Z,8.79
2019-05-02T22:59:28.723Z,5.14
2019-05-02T23:04:38.020Z,10.35
2019-05-02T23:09:47.175Z,6.09
2019-05-02T23:14:56.418Z,7.34
2019-05-02T23:20:05.550Z,8.87
2019-05-02T23:25:14.736Z,9.91
2019-05-02T23:30:23.871Z,6.79
2019-05-02T23:35:34.263Z,8.59
2019-05-02T23:40:42.126Z,10.47
2019-05-02T23:45:51.674Z,6.56
2019-05-02T23:50:59.808Z,7.30
2019-05-02T23:56:09.070Z,5.91
